sensor_id;sensor_type;location;lat;lon;timestamp;P1;durP1;ratioP1;P2;durP2;ratioP2
80677;SDS011;70042;52.494;5.502;2023-10-31T00:01:21;1.48;;;0.95;;
80677;SDS011;70042;52.494;5.502;2023-10-31T00:03:46;2.38;;;0.90;;
80677;SDS011;70042;52.494;5.502;2023-10-31T00:06:12;2.40;;;0.82;;
80677;SDS011;70042;52.494;5.502;2023-10-31T00:08:37;1.92;;;0.60;;
80677;SDS011;70042;52.494;5.502;2023-10-31T00:11:03;1.45;;;0.70;;
80677;SDS011;70042;52.494;5.502;2023-10-31T00:13:28;2.83;;;0.80;;
80677;SDS011;70042;52.494;5.502;2023-10-31T00:15:54;1.95;;;0.80;;
80677;SDS011;70042;52.494;5.502;2023-10-31T00:18:20;2.20;;;1.15;;
80677;SDS011;70042;52.494;5.502;2023-10-31T00:20:46;2.10;;;1.10;;
80677;SDS011;70042;52.494;5.502;2023-10-31T00:23:11;1.92;;;1.13;;
80677;SDS011;70042;52.494;5.502;2023-10-31T00:25:37;2.28;;;1.20;;
80677;SDS011;70042;52.494;5.502;2023-10-31T00:28:03;3.92;;;1.17;;
80677;SDS011;70042;52.494;5.502;2023-10-31T00:30:28;1.60;;;0.80;;
80677;SDS011;70042;52.494;5.502;2023-10-31T00:32:54;3.90;;;1.40;;
80677;SDS011;70042;52.494;5.502;2023-10-31T00:35:19;2.83;;;1.10;;
80677;SDS011;70042;52.494;5.502;2023-10-31T00:37:44;1.92;;;0.98;;
80677;SDS011;70042;52.494;5.502;2023-10-31T00:40:10;2.20;;;0.80;;
80677;SDS011;70042;52.494;5.502;2023-10-31T00:42:39;2.15;;;0.93;;
80677;SDS011;70042;52.494;5.502;2023-10-31T00:45:07;1.67;;;0.88;;
80677;SDS011;70042;52.494;5.502;2023-10-31T00:49:58;1.67;;;0.73;;
80677;SDS011;70042;52.494;5.502;2023-10-31T00:52:23;2.45;;;0.98;;
80677;SDS011;70042;52.494;5.502;2023-10-31T00:54:49;2.15;;;0.82;;
80677;SDS011;70042;52.494;5.502;2023-10-31T00:57:14;2.20;;;0.85;;
80677;SDS011;70042;52.494;5.502;2023-10-31T00:59:40;2.97;;;1.00;;
80677;SDS011;70042;52.494;5.502;2023-10-31T01:02:05;2.47;;;1.10;;
80677;SDS011;70042;52.494;5.502;2023-10-31T01:04:31;3.65;;;1.10;;
80677;SDS011;70042;52.494;5.502;2023-10-31T01:06:56;2.38;;;1.35;;
80677;SDS011;70042;52.494;5.502;2023-10-31T01:09:22;3.53;;;1.10;;
80677;SDS011;70042;52.494;5.502;2023-10-31T01:11:47;2.85;;;1.13;;
80677;SDS011;70042;52.494;5.502;2023-10-31T01:14:13;2.33;;;1.00;;
80677;SDS011;70042;52.494;5.502;2023-10-31T01:16:41;1.27;;;0.60;;
80677;SDS011;70042;52.494;5.502;2023-10-31T01:19:07;0.98;;;0.60;;
80677;SDS011;70042;52.494;5.502;2023-10-31T01:21:33;1.40;;;0.80;;
80677;SDS011;70042;52.494;5.502;2023-10-31T01:23:59;2.10;;;0.90;;
80677;SDS011;70042;52.494;5.502;2023-10-31T01:26:24;1.42;;;0.80;;
80677;SDS011;70042;52.494;5.502;2023-10-31T01:28:50;1.70;;;0.75;;
80677;SDS011;70042;52.494;5.502;2023-10-31T01:31:16;1.75;;;0.80;;
80677;SDS011;70042;52.494;5.502;2023-10-31T01:33:42;2.65;;;0.93;;
80677;SDS011;70042;52.494;5.502;2023-10-31T01:36:07;1.60;;;0.70;;
80677;SDS011;70042;52.494;5.502;2023-10-31T01:38:35;1.95;;;0.73;;
80677;SDS011;70042;52.494;5.502;2023-10-31T01:41:00;2.15;;;0.90;;
80677;SDS011;70042;52.494;5.502;2023-10-31T01:43:32;1.75;;;0.98;;
80677;SDS011;70042;52.494;5.502;2023-10-31T01:45:58;2.45;;;0.77;;
80677;SDS011;70042;52.494;5.502;2023-10-31T01:48:24;1.77;;;0.80;;
80677;SDS011;70042;52.494;5.502;2023-10-31T01:50:52;1.25;;;0.60;;
80677;SDS011;70042;52.494;5.502;2023-10-31T01:53:18;2.63;;;1.20;;
80677;SDS011;70042;52.494;5.502;2023-10-31T01:55:44;2.58;;;0.70;;
80677;SDS011;70042;52.494;5.502;2023-10-31T01:58:12;2.20;;;0.90;;
80677;SDS011;70042;52.494;5.502;2023-10-31T02:03:05;4.00;;;0.85;;
80677;SDS011;70042;52.494;5.502;2023-10-31T02:05:32;2.30;;;0.73;;
80677;SDS011;70042;52.494;5.502;2023-10-31T02:07:59;1.65;;;0.93;;
80677;SDS011;70042;52.494;5.502;2023-10-31T02:10:25;1.95;;;1.10;;
80677;SDS011;70042;52.494;5.502;2023-10-31T02:12:50;1.98;;;0.82;;
80677;SDS011;70042;52.494;5.502;2023-10-31T02:15:16;1.98;;;0.80;;
80677;SDS011;70042;52.494;5.502;2023-10-31T02:17:42;1.50;;;0.70;;
80677;SDS011;70042;52.494;5.502;2023-10-31T02:20:07;1.35;;;0.82;;
80677;SDS011;70042;52.494;5.502;2023-10-31T02:22:33;2.13;;;1.00;;
80677;SDS011;70042;52.494;5.502;2023-10-31T02:24:58;1.73;;;0.90;;
80677;SDS011;70042;52.494;5.502;2023-10-31T02:27:24;1.42;;;0.70;;
80677;SDS011;70042;52.494;5.502;2023-10-31T02:29:49;1.75;;;1.00;;
80677;SDS011;70042;52.494;5.502;2023-10-31T02:34:40;1.75;;;0.88;;
80677;SDS011;70042;52.494;5.502;2023-10-31T02:37:07;4.35;;;1.08;;
80677;SDS011;70042;52.494;5.502;2023-10-31T02:39:33;2.38;;;0.98;;
80677;SDS011;70042;52.494;5.502;2023-10-31T02:41:59;2.70;;;0.80;;
80677;SDS011;70042;52.494;5.502;2023-10-31T02:44:24;1.45;;;0.90;;
80677;SDS011;70042;52.494;5.502;2023-10-31T02:46:49;1.65;;;0.90;;
80677;SDS011;70042;52.494;5.502;2023-10-31T02:49:15;1.55;;;0.65;;
80677;SDS011;70042;52.494;5.502;2023-10-31T02:51:40;1.27;;;0.60;;
80677;SDS011;70042;52.494;5.502;2023-10-31T02:54:06;1.63;;;0.70;;
80677;SDS011;70042;52.494;5.502;2023-10-31T02:56:31;2.20;;;0.93;;
80677;SDS011;70042;52.494;5.502;2023-10-31T02:58:56;1.58;;;0.70;;
80677;SDS011;70042;52.494;5.502;2023-10-31T03:01:22;1.85;;;0.90;;
80677;SDS011;70042;52.494;5.502;2023-10-31T03:03:47;1.15;;;0.50;;
80677;SDS011;70042;52.494;5.502;2023-10-31T03:06:13;2.38;;;0.93;;
80677;SDS011;70042;52.494;5.502;2023-10-31T03:08:38;1.25;;;0.63;;
80677;SDS011;70042;52.494;5.502;2023-10-31T03:11:04;1.90;;;0.85;;
80677;SDS011;70042;52.494;5.502;2023-10-31T03:13:29;1.65;;;0.90;;
80677;SDS011;70042;52.494;5.502;2023-10-31T03:15:55;2.17;;;0.90;;
80677;SDS011;70042;52.494;5.502;2023-10-31T03:18:20;2.45;;;0.90;;
80677;SDS011;70042;52.494;5.502;2023-10-31T03:20:47;1.70;;;0.80;;
80677;SDS011;70042;52.494;5.502;2023-10-31T03:23:12;1.65;;;0.90;;
80677;SDS011;70042;52.494;5.502;2023-10-31T03:25:38;1.65;;;1.00;;
80677;SDS011;70042;52.494;5.502;2023-10-31T03:28:04;1.23;;;0.75;;
80677;SDS011;70042;52.494;5.502;2023-10-31T03:30:30;2.03;;;1.00;;
80677;SDS011;70042;52.494;5.502;2023-10-31T03:32:55;1.88;;;1.05;;
80677;SDS011;70042;52.494;5.502;2023-10-31T03:35:20;1.40;;;0.80;;
80677;SDS011;70042;52.494;5.502;2023-10-31T03:37:46;1.40;;;0.90;;
80677;SDS011;70042;52.494;5.502;2023-10-31T03:40:11;1.95;;;0.85;;
80677;SDS011;70042;52.494;5.502;2023-10-31T03:42:37;2.45;;;1.13;;
80677;SDS011;70042;52.494;5.502;2023-10-31T03:45:02;1.75;;;0.98;;
80677;SDS011;70042;52.494;5.502;2023-10-31T03:47:28;1.80;;;0.88;;
80677;SDS011;70042;52.494;5.502;2023-10-31T03:49:53;1.83;;;0.80;;
80677;SDS011;70042;52.494;5.502;2023-10-31T03:52:19;1.55;;;0.80;;
80677;SDS011;70042;52.494;5.502;2023-10-31T03:54:44;1.08;;;0.65;;
80677;SDS011;70042;52.494;5.502;2023-10-31T03:57:10;1.15;;;0.57;;
80677;SDS011;70042;52.494;5.502;2023-10-31T03:59:37;2.72;;;1.08;;
80677;SDS011;70042;52.494;5.502;2023-10-31T04:02:02;1.33;;;0.63;;
80677;SDS011;70042;52.494;5.502;2023-10-31T04:04:28;2.22;;;0.80;;
80677;SDS011;70042;52.494;5.502;2023-10-31T04:06:53;2.55;;;0.70;;
80677;SDS011;70042;52.494;5.502;2023-10-31T04:09:19;2.13;;;0.82;;
80677;SDS011;70042;52.494;5.502;2023-10-31T04:11:45;1.08;;;0.60;;
80677;SDS011;70042;52.494;5.502;2023-10-31T04:14:10;1.27;;;0.68;;
80677;SDS011;70042;52.494;5.502;2023-10-31T04:16:39;1.20;;;0.60;;
80677;SDS011;70042;52.494;5.502;2023-10-31T04:19:06;1.42;;;0.60;;
80677;SDS011;70042;52.494;5.502;2023-10-31T04:21:32;1.60;;;0.80;;
80677;SDS011;70042;52.494;5.502;2023-10-31T04:23:57;2.05;;;0.60;;
80677;SDS011;70042;52.494;5.502;2023-10-31T04:26:23;1.75;;;0.90;;
80677;SDS011;70042;52.494;5.502;2023-10-31T04:28:48;1.80;;;0.88;;
80677;SDS011;70042;52.494;5.502;2023-10-31T04:31:14;0.80;;;0.50;;
80677;SDS011;70042;52.494;5.502;2023-10-31T04:33:39;2.30;;;0.82;;
80677;SDS011;70042;52.494;5.502;2023-10-31T04:36:05;1.67;;;0.60;;
80677;SDS011;70042;52.494;5.502;2023-10-31T04:38:30;2.03;;;0.60;;
80677;SDS011;70042;52.494;5.502;2023-10-31T04:40:56;1.20;;;0.70;;
80677;SDS011;70042;52.494;5.502;2023-10-31T04:43:21;1.35;;;0.57;;
80677;SDS011;70042;52.494;5.502;2023-10-31T04:45:46;2.13;;;0.77;;
80677;SDS011;70042;52.494;5.502;2023-10-31T04:48:12;1.23;;;0.60;;
80677;SDS011;70042;52.494;5.502;2023-10-31T04:50:38;2.25;;;1.00;;
80677;SDS011;70042;52.494;5.502;2023-10-31T04:53:04;1.42;;;0.55;;
80677;SDS011;70042;52.494;5.502;2023-10-31T04:55:29;1.45;;;0.70;;
80677;SDS011;70042;52.494;5.502;2023-10-31T04:57:55;1.10;;;0.68;;
80677;SDS011;70042;52.494;5.502;2023-10-31T05:00:20;1.75;;;0.55;;
80677;SDS011;70042;52.494;5.502;2023-10-31T05:02:46;1.50;;;0.52;;
80677;SDS011;70042;52.494;5.502;2023-10-31T05:05:11;0.52;;;0.40;;
80677;SDS011;70042;52.494;5.502;2023-10-31T05:07:36;1.38;;;0.65;;
80677;SDS011;70042;52.494;5.502;2023-10-31T05:10:02;0.98;;;0.57;;
80677;SDS011;70042;52.494;5.502;2023-10-31T05:12:27;1.90;;;0.80;;
80677;SDS011;70042;52.494;5.502;2023-10-31T05:14:53;2.08;;;0.73;;
80677;SDS011;70042;52.494;5.502;2023-10-31T05:17:18;1.38;;;0.55;;
80677;SDS011;70042;52.494;5.502;2023-10-31T05:19:44;1.30;;;0.70;;
80677;SDS011;70042;52.494;5.502;2023-10-31T05:22:09;0.98;;;0.50;;
80677;SDS011;70042;52.494;5.502;2023-10-31T05:24:34;2.05;;;0.60;;
80677;SDS011;70042;52.494;5.502;2023-10-31T05:27:01;1.33;;;0.60;;
80677;SDS011;70042;52.494;5.502;2023-10-31T05:29:26;1.38;;;0.50;;
80677;SDS011;70042;52.494;5.502;2023-10-31T05:31:52;0.85;;;0.40;;
80677;SDS011;70042;52.494;5.502;2023-10-31T05:34:17;1.27;;;0.52;;
80677;SDS011;70042;52.494;5.502;2023-10-31T05:36:42;0.80;;;0.50;;
80677;SDS011;70042;52.494;5.502;2023-10-31T05:39:08;1.33;;;0.55;;
80677;SDS011;70042;52.494;5.502;2023-10-31T05:41:34;1.48;;;0.70;;
80677;SDS011;70042;52.494;5.502;2023-10-31T05:44:00;1.10;;;0.60;;
80677;SDS011;70042;52.494;5.502;2023-10-31T05:46:25;1.33;;;0.70;;
80677;SDS011;70042;52.494;5.502;2023-10-31T05:48:51;1.15;;;0.70;;
80677;SDS011;70042;52.494;5.502;2023-10-31T05:51:18;0.77;;;0.43;;
80677;SDS011;70042;52.494;5.502;2023-10-31T05:53:45;1.15;;;0.50;;
80677;SDS011;70042;52.494;5.502;2023-10-31T05:56:12;0.90;;;0.52;;
80677;SDS011;70042;52.494;5.502;2023-10-31T05:58:39;1.50;;;0.50;;
80677;SDS011;70042;52.494;5.502;2023-10-31T06:01:05;1.42;;;0.60;;
80677;SDS011;70042;52.494;5.502;2023-10-31T06:03:31;0.68;;;0.45;;
80677;SDS011;70042;52.494;5.502;2023-10-31T06:05:57;1.15;;;0.40;;
80677;SDS011;70042;52.494;5.502;2023-10-31T06:08:23;1.60;;;1.00;;
80677;SDS011;70042;52.494;5.502;2023-10-31T06:13:15;1.63;;;0.55;;
80677;SDS011;70042;52.494;5.502;2023-10-31T06:15:41;1.80;;;0.38;;
80677;SDS011;70042;52.494;5.502;2023-10-31T06:18:06;1.02;;;0.50;;
80677;SDS011;70042;52.494;5.502;2023-10-31T06:20:32;1.48;;;0.70;;
80677;SDS011;70042;52.494;5.502;2023-10-31T06:22:59;1.20;;;0.32;;
80677;SDS011;70042;52.494;5.502;2023-10-31T06:25:25;1.52;;;0.40;;
80677;SDS011;70042;52.494;5.502;2023-10-31T06:27:50;0.95;;;0.50;;
80677;SDS011;70042;52.494;5.502;2023-10-31T06:30:16;1.00;;;0.40;;
80677;SDS011;70042;52.494;5.502;2023-10-31T06:32:42;0.95;;;0.52;;
80677;SDS011;70042;52.494;5.502;2023-10-31T06:35:07;1.00;;;0.47;;
80677;SDS011;70042;52.494;5.502;2023-10-31T06:37:33;1.25;;;0.50;;
80677;SDS011;70042;52.494;5.502;2023-10-31T06:39:58;1.10;;;0.50;;
80677;SDS011;70042;52.494;5.502;2023-10-31T06:42:24;1.73;;;0.57;;
80677;SDS011;70042;52.494;5.502;2023-10-31T06:44:49;1.48;;;0.50;;
80677;SDS011;70042;52.494;5.502;2023-10-31T06:47:15;1.42;;;0.47;;
80677;SDS011;70042;52.494;5.502;2023-10-31T06:49:41;1.58;;;0.60;;
80677;SDS011;70042;52.494;5.502;2023-10-31T06:52:06;1.38;;;0.47;;
80677;SDS011;70042;52.494;5.502;2023-10-31T06:54:31;2.05;;;0.45;;
80677;SDS011;70042;52.494;5.502;2023-10-31T06:56:57;1.08;;;0.60;;
80677;SDS011;70042;52.494;5.502;2023-10-31T06:59:22;1.90;;;0.88;;
80677;SDS011;70042;52.494;5.502;2023-10-31T07:01:48;2.58;;;0.68;;
80677;SDS011;70042;52.494;5.502;2023-10-31T07:04:13;2.13;;;0.57;;
80677;SDS011;70042;52.494;5.502;2023-10-31T07:06:39;1.85;;;0.52;;
80677;SDS011;70042;52.494;5.502;2023-10-31T07:09:04;0.70;;;0.40;;
80677;SDS011;70042;52.494;5.502;2023-10-31T07:11:30;0.90;;;0.35;;
80677;SDS011;70042;52.494;5.502;2023-10-31T07:13:58;1.17;;;0.38;;
80677;SDS011;70042;52.494;5.502;2023-10-31T07:16:27;1.05;;;0.50;;
80677;SDS011;70042;52.494;5.502;2023-10-31T07:18:53;1.42;;;0.70;;
80677;SDS011;70042;52.494;5.502;2023-10-31T07:21:19;1.23;;;0.60;;
80677;SDS011;70042;52.494;5.502;2023-10-31T07:23:44;0.70;;;0.20;;
80677;SDS011;70042;52.494;5.502;2023-10-31T07:26:10;1.08;;;0.45;;
80677;SDS011;70042;52.494;5.502;2023-10-31T07:28:35;1.98;;;0.38;;
80677;SDS011;70042;52.494;5.502;2023-10-31T07:31:01;2.45;;;0.70;;
80677;SDS011;70042;52.494;5.502;2023-10-31T07:33:27;1.38;;;0.45;;
80677;SDS011;70042;52.494;5.502;2023-10-31T07:35:52;0.93;;;0.40;;
80677;SDS011;70042;52.494;5.502;2023-10-31T07:38:18;1.13;;;0.50;;
80677;SDS011;70042;52.494;5.502;2023-10-31T07:40:43;1.02;;;0.52;;
80677;SDS011;70042;52.494;5.502;2023-10-31T07:43:08;1.63;;;0.40;;
80677;SDS011;70042;52.494;5.502;2023-10-31T07:45:34;0.77;;;0.35;;
80677;SDS011;70042;52.494;5.502;2023-10-31T07:50:26;1.40;;;0.60;;
80677;SDS011;70042;52.494;5.502;2023-10-31T07:52:52;1.73;;;0.45;;
80677;SDS011;70042;52.494;5.502;2023-10-31T07:55:18;0.73;;;0.35;;
80677;SDS011;70042;52.494;5.502;2023-10-31T07:57:43;1.08;;;0.40;;
80677;SDS011;70042;52.494;5.502;2023-10-31T08:00:10;2.13;;;0.73;;
80677;SDS011;70042;52.494;5.502;2023-10-31T08:02:37;1.05;;;0.30;;
80677;SDS011;70042;52.494;5.502;2023-10-31T08:05:02;5.40;;;0.55;;
80677;SDS011;70042;52.494;5.502;2023-10-31T08:07:28;1.15;;;0.40;;
80677;SDS011;70042;52.494;5.502;2023-10-31T08:09:58;0.47;;;0.30;;
80677;SDS011;70042;52.494;5.502;2023-10-31T08:12:23;1.67;;;0.63;;
80677;SDS011;70042;52.494;5.502;2023-10-31T08:14:49;1.67;;;0.40;;
80677;SDS011;70042;52.494;5.502;2023-10-31T08:17:14;0.73;;;0.47;;
80677;SDS011;70042;52.494;5.502;2023-10-31T08:19:40;0.88;;;0.30;;
80677;SDS011;70042;52.494;5.502;2023-10-31T08:22:05;1.30;;;0.60;;
80677;SDS011;70042;52.494;5.502;2023-10-31T08:24:31;1.13;;;0.50;;
80677;SDS011;70042;52.494;5.502;2023-10-31T08:26:57;1.33;;;0.60;;
80677;SDS011;70042;52.494;5.502;2023-10-31T08:29:23;1.38;;;0.50;;
80677;SDS011;70042;52.494;5.502;2023-10-31T08:31:49;0.77;;;0.40;;
80677;SDS011;70042;52.494;5.502;2023-10-31T08:34:14;0.90;;;0.30;;
80677;SDS011;70042;52.494;5.502;2023-10-31T08:36:39;2.17;;;0.40;;
80677;SDS011;70042;52.494;5.502;2023-10-31T08:39:05;1.33;;;0.60;;
80677;SDS011;70042;52.494;5.502;2023-10-31T08:41:30;0.43;;;0.30;;
80677;SDS011;70042;52.494;5.502;2023-10-31T08:43:56;1.60;;;0.40;;
80677;SDS011;70042;52.494;5.502;2023-10-31T08:46:23;0.43;;;0.30;;
80677;SDS011;70042;52.494;5.502;2023-10-31T08:48:48;1.10;;;0.47;;
80677;SDS011;70042;52.494;5.502;2023-10-31T08:51:14;1.25;;;0.50;;
80677;SDS011;70042;52.494;5.502;2023-10-31T08:53:39;0.70;;;0.40;;
80677;SDS011;70042;52.494;5.502;2023-10-31T08:56:05;1.42;;;0.35;;
80677;SDS011;70042;52.494;5.502;2023-10-31T08:58:30;1.20;;;0.47;;
80677;SDS011;70042;52.494;5.502;2023-10-31T09:00:56;0.55;;;0.35;;
80677;SDS011;70042;52.494;5.502;2023-10-31T09:03:21;1.20;;;0.50;;
80677;SDS011;70042;52.494;5.502;2023-10-31T09:05:47;1.05;;;0.30;;
80677;SDS011;70042;52.494;5.502;2023-10-31T09:08:12;1.75;;;0.50;;
80677;SDS011;70042;52.494;5.502;2023-10-31T09:10:37;0.65;;;0.40;;
80677;SDS011;70042;52.494;5.502;2023-10-31T09:13:03;0.60;;;0.32;;
80677;SDS011;70042;52.494;5.502;2023-10-31T09:15:30;0.88;;;0.40;;
80677;SDS011;70042;52.494;5.502;2023-10-31T09:17:55;1.00;;;0.35;;
80677;SDS011;70042;52.494;5.502;2023-10-31T09:20:20;0.50;;;0.30;;
80677;SDS011;70042;52.494;5.502;2023-10-31T09:22:46;1.15;;;0.30;;
80677;SDS011;70042;52.494;5.502;2023-10-31T09:25:11;1.02;;;0.40;;
80677;SDS011;70042;52.494;5.502;2023-10-31T09:27:37;1.77;;;0.50;;
80677;SDS011;70042;52.494;5.502;2023-10-31T09:30:05;1.08;;;0.40;;
80677;SDS011;70042;52.494;5.502;2023-10-31T09:32:31;1.17;;;0.35;;
80677;SDS011;70042;52.494;5.502;2023-10-31T09:34:57;0.30;;;0.20;;
80677;SDS011;70042;52.494;5.502;2023-10-31T09:37:23;0.50;;;0.20;;
80677;SDS011;70042;52.494;5.502;2023-10-31T09:39:48;0.57;;;0.30;;
80677;SDS011;70042;52.494;5.502;2023-10-31T09:42:13;0.73;;;0.40;;
80677;SDS011;70042;52.494;5.502;2023-10-31T09:44:39;1.08;;;0.50;;
80677;SDS011;70042;52.494;5.502;2023-10-31T09:47:05;1.70;;;0.60;;
80677;SDS011;70042;52.494;5.502;2023-10-31T09:49:31;2.88;;;0.77;;
80677;SDS011;70042;52.494;5.502;2023-10-31T09:51:57;0.70;;;0.40;;
80677;SDS011;70042;52.494;5.502;2023-10-31T09:54:24;2.30;;;0.73;;
80677;SDS011;70042;52.494;5.502;2023-10-31T09:56:51;2.40;;;0.50;;
80677;SDS011;70042;52.494;5.502;2023-10-31T09:59:16;2.75;;;0.50;;
80677;SDS011;70042;52.494;5.502;2023-10-31T10:01:42;3.10;;;0.68;;
80677;SDS011;70042;52.494;5.502;2023-10-31T10:04:08;1.05;;;0.65;;
80677;SDS011;70042;52.494;5.502;2023-10-31T10:08:59;3.40;;;0.63;;
80677;SDS011;70042;52.494;5.502;2023-10-31T10:11:25;0.98;;;0.43;;
80677;SDS011;70042;52.494;5.502;2023-10-31T10:13:53;1.65;;;0.40;;
80677;SDS011;70042;52.494;5.502;2023-10-31T10:16:29;1.27;;;0.60;;
80677;SDS011;70042;52.494;5.502;2023-10-31T10:18:56;1.00;;;0.50;;
80677;SDS011;70042;52.494;5.502;2023-10-31T10:21:21;8.20;;;3.17;;
80677;SDS011;70042;52.494;5.502;2023-10-31T10:23:47;35.10;;;14.98;;
80677;SDS011;70042;52.494;5.502;2023-10-31T10:26:14;22.45;;;9.23;;
80677;SDS011;70042;52.494;5.502;2023-10-31T10:28:40;11.98;;;4.85;;
80677;SDS011;70042;52.494;5.502;2023-10-31T10:31:05;8.00;;;3.92;;
80677;SDS011;70042;52.494;5.502;2023-10-31T10:33:33;11.80;;;5.43;;
80677;SDS011;70042;52.494;5.502;2023-10-31T10:35:59;8.25;;;4.90;;
80677;SDS011;70042;52.494;5.502;2023-10-31T10:38:25;10.07;;;4.45;;
80677;SDS011;70042;52.494;5.502;2023-10-31T10:40:51;11.82;;;3.95;;
80677;SDS011;70042;52.494;5.502;2023-10-31T10:43:24;8.57;;;3.95;;
80677;SDS011;70042;52.494;5.502;2023-10-31T10:45:54;10.05;;;3.83;;
80677;SDS011;70042;52.494;5.502;2023-10-31T10:48:21;9.15;;;3.40;;
80677;SDS011;70042;52.494;5.502;2023-10-31T10:53:20;7.32;;;3.70;;
80677;SDS011;70042;52.494;5.502;2023-10-31T10:56:13;7.50;;;3.35;;
80677;SDS011;70042;52.494;5.502;2023-10-31T10:58:49;5.15;;;2.38;;
80677;SDS011;70042;52.494;5.502;2023-10-31T11:01:19;6.30;;;2.80;;
80677;SDS011;70042;52.494;5.502;2023-10-31T11:03:45;6.28;;;2.45;;
80677;SDS011;70042;52.494;5.502;2023-10-31T11:08:37;4.78;;;2.33;;
80677;SDS011;70042;52.494;5.502;2023-10-31T11:13:29;5.20;;;2.42;;
80677;SDS011;70042;52.494;5.502;2023-10-31T11:15:55;7.80;;;2.45;;
80677;SDS011;70042;52.494;5.502;2023-10-31T11:18:26;5.55;;;2.20;;
80677;SDS011;70042;52.494;5.502;2023-10-31T11:20:52;5.45;;;1.88;;
80677;SDS011;70042;52.494;5.502;2023-10-31T11:23:18;6.38;;;2.63;;
80677;SDS011;70042;52.494;5.502;2023-10-31T11:25:43;5.78;;;2.63;;
80677;SDS011;70042;52.494;5.502;2023-10-31T11:30:39;4.65;;;1.98;;
80677;SDS011;70042;52.494;5.502;2023-10-31T11:33:07;2.95;;;1.90;;
80677;SDS011;70042;52.494;5.502;2023-10-31T11:35:38;3.80;;;1.70;;
80677;SDS011;70042;52.494;5.502;2023-10-31T11:38:06;7.78;;;2.22;;
80677;SDS011;70042;52.494;5.502;2023-10-31T11:43:14;5.65;;;2.22;;
80677;SDS011;70042;52.494;5.502;2023-10-31T11:45:40;5.78;;;1.70;;
80677;SDS011;70042;52.494;5.502;2023-10-31T11:48:08;5.25;;;1.60;;
80677;SDS011;70042;52.494;5.502;2023-10-31T11:50:35;3.72;;;1.45;;
80677;SDS011;70042;52.494;5.502;2023-10-31T11:53:03;4.93;;;1.50;;
80677;SDS011;70042;52.494;5.502;2023-10-31T11:55:39;2.97;;;1.48;;
80677;SDS011;70042;52.494;5.502;2023-10-31T12:00:46;2.40;;;1.30;;
80677;SDS011;70042;52.494;5.502;2023-10-31T12:03:15;3.85;;;1.10;;
80677;SDS011;70042;52.494;5.502;2023-10-31T12:05:50;2.30;;;1.20;;
80677;SDS011;70042;52.494;5.502;2023-10-31T12:08:30;2.90;;;1.10;;
80677;SDS011;70042;52.494;5.502;2023-10-31T12:13:36;5.25;;;1.48;;
80677;SDS011;70042;52.494;5.502;2023-10-31T12:16:03;3.72;;;1.02;;
80677;SDS011;70042;52.494;5.502;2023-10-31T12:18:31;4.07;;;1.27;;
80677;SDS011;70042;52.494;5.502;2023-10-31T12:20:56;4.07;;;1.50;;
80677;SDS011;70042;52.494;5.502;2023-10-31T12:23:22;2.92;;;0.75;;
80677;SDS011;70042;52.494;5.502;2023-10-31T12:25:48;5.43;;;1.52;;
80677;SDS011;70042;52.494;5.502;2023-10-31T12:28:17;4.18;;;1.20;;
80677;SDS011;70042;52.494;5.502;2023-10-31T12:30:47;3.15;;;1.60;;
80677;SDS011;70042;52.494;5.502;2023-10-31T12:33:13;2.95;;;1.30;;
80677;SDS011;70042;52.494;5.502;2023-10-31T12:35:39;3.40;;;1.25;;
80677;SDS011;70042;52.494;5.502;2023-10-31T12:38:05;3.55;;;1.00;;
80677;SDS011;70042;52.494;5.502;2023-10-31T12:40:33;5.22;;;1.27;;
80677;SDS011;70042;52.494;5.502;2023-10-31T12:42:59;2.78;;;1.20;;
80677;SDS011;70042;52.494;5.502;2023-10-31T12:45:26;5.22;;;1.23;;
80677;SDS011;70042;52.494;5.502;2023-10-31T12:50:31;3.05;;;1.00;;
80677;SDS011;70042;52.494;5.502;2023-10-31T12:52:58;3.35;;;0.93;;
80677;SDS011;70042;52.494;5.502;2023-10-31T12:55:28;3.42;;;0.88;;
80677;SDS011;70042;52.494;5.502;2023-10-31T12:57:55;3.00;;;0.90;;
80677;SDS011;70042;52.494;5.502;2023-10-31T13:00:21;3.00;;;1.02;;
80677;SDS011;70042;52.494;5.502;2023-10-31T13:02:51;2.85;;;0.68;;
80677;SDS011;70042;52.494;5.502;2023-10-31T13:05:24;2.03;;;0.85;;
80677;SDS011;70042;52.494;5.502;2023-10-31T13:07:51;3.92;;;1.08;;
80677;SDS011;70042;52.494;5.502;2023-10-31T13:10:19;3.35;;;0.80;;
80677;SDS011;70042;52.494;5.502;2023-10-31T13:12:45;1.95;;;0.93;;
80677;SDS011;70042;52.494;5.502;2023-10-31T13:15:14;2.03;;;0.90;;
80677;SDS011;70042;52.494;5.502;2023-10-31T13:17:40;2.33;;;0.73;;
80677;SDS011;70042;52.494;5.502;2023-10-31T13:20:08;4.32;;;1.05;;
80677;SDS011;70042;52.494;5.502;2023-10-31T13:22:38;2.13;;;0.90;;
80677;SDS011;70042;52.494;5.502;2023-10-31T13:25:06;3.20;;;0.57;;
80677;SDS011;70042;52.494;5.502;2023-10-31T13:27:45;3.45;;;1.17;;
80677;SDS011;70042;52.494;5.502;2023-10-31T13:30:15;2.72;;;1.00;;
80677;SDS011;70042;52.494;5.502;2023-10-31T13:32:42;2.80;;;0.95;;
80677;SDS011;70042;52.494;5.502;2023-10-31T13:35:08;2.85;;;0.70;;
80677;SDS011;70042;52.494;5.502;2023-10-31T13:37:37;2.15;;;0.75;;
80677;SDS011;70042;52.494;5.502;2023-10-31T13:40:03;2.17;;;0.70;;
80677;SDS011;70042;52.494;5.502;2023-10-31T13:42:29;2.20;;;0.60;;
80677;SDS011;70042;52.494;5.502;2023-10-31T13:44:55;2.53;;;0.77;;
80677;SDS011;70042;52.494;5.502;2023-10-31T13:47:21;3.40;;;1.00;;
80677;SDS011;70042;52.494;5.502;2023-10-31T13:49:47;1.88;;;0.57;;
80677;SDS011;70042;52.494;5.502;2023-10-31T13:54:38;2.10;;;0.60;;
80677;SDS011;70042;52.494;5.502;2023-10-31T13:57:04;3.38;;;0.90;;
80677;SDS011;70042;52.494;5.502;2023-10-31T13:59:30;2.30;;;0.70;;
80677;SDS011;70042;52.494;5.502;2023-10-31T14:01:56;1.27;;;0.68;;
80677;SDS011;70042;52.494;5.502;2023-10-31T14:04:22;4.35;;;0.82;;
80677;SDS011;70042;52.494;5.502;2023-10-31T14:06:47;1.63;;;0.70;;
80677;SDS011;70042;52.494;5.502;2023-10-31T14:09:13;1.20;;;0.55;;
80677;SDS011;70042;52.494;5.502;2023-10-31T14:11:40;3.42;;;1.02;;
80677;SDS011;70042;52.494;5.502;2023-10-31T14:16:38;2.25;;;0.55;;
80677;SDS011;70042;52.494;5.502;2023-10-31T14:19:04;1.80;;;0.50;;
80677;SDS011;70042;52.494;5.502;2023-10-31T14:21:32;2.63;;;0.50;;
80677;SDS011;70042;52.494;5.502;2023-10-31T14:23:58;1.00;;;0.70;;
80677;SDS011;70042;52.494;5.502;2023-10-31T14:26:24;1.65;;;0.40;;
80677;SDS011;70042;52.494;5.502;2023-10-31T14:28:50;1.40;;;0.63;;
80677;SDS011;70042;52.494;5.502;2023-10-31T14:31:16;1.70;;;0.40;;
80677;SDS011;70042;52.494;5.502;2023-10-31T14:33:41;1.80;;;0.60;;
80677;SDS011;70042;52.494;5.502;2023-10-31T14:36:08;1.17;;;0.50;;
80677;SDS011;70042;52.494;5.502;2023-10-31T14:38:36;2.92;;;0.50;;
80677;SDS011;70042;52.494;5.502;2023-10-31T14:43:28;2.63;;;0.65;;
80677;SDS011;70042;52.494;5.502;2023-10-31T14:45:53;1.73;;;0.75;;
80677;SDS011;70042;52.494;5.502;2023-10-31T14:48:19;1.80;;;0.30;;
80677;SDS011;70042;52.494;5.502;2023-10-31T14:50:46;1.30;;;0.47;;
80677;SDS011;70042;52.494;5.502;2023-10-31T14:53:12;1.30;;;0.70;;
80677;SDS011;70042;52.494;5.502;2023-10-31T14:55:38;3.25;;;0.50;;
80677;SDS011;70042;52.494;5.502;2023-10-31T14:58:03;1.48;;;0.50;;
80677;SDS011;70042;52.494;5.502;2023-10-31T15:00:29;1.10;;;0.40;;
80677;SDS011;70042;52.494;5.502;2023-10-31T15:02:55;0.82;;;0.40;;
80677;SDS011;70042;52.494;5.502;2023-10-31T15:05:21;0.90;;;0.40;;
80677;SDS011;70042;52.494;5.502;2023-10-31T15:07:48;2.03;;;0.60;;
80677;SDS011;70042;52.494;5.502;2023-10-31T15:10:13;2.95;;;0.60;;
80677;SDS011;70042;52.494;5.502;2023-10-31T15:12:39;2.08;;;0.40;;
80677;SDS011;70042;52.494;5.502;2023-10-31T15:15:04;8.52;;;0.80;;
80677;SDS011;70042;52.494;5.502;2023-10-31T15:17:31;0.82;;;0.32;;
80677;SDS011;70042;52.494;5.502;2023-10-31T15:19:56;0.90;;;0.50;;
80677;SDS011;70042;52.494;5.502;2023-10-31T15:22:21;1.33;;;0.65;;
80677;SDS011;70042;52.494;5.502;2023-10-31T15:24:47;3.28;;;0.80;;